sensor_id;sensor_type;location;lat;lon;timestamp;P1;durP1;ratioP1;P2;durP2;ratioP2
7383;SDS011;3733;47.994;8.820;2022-12-10T00:01:22;55.70;;;25.67;;
7383;SDS011;3733;47.994;8.820;2022-12-10T00:03:49;52.47;;;23.90;;
7383;SDS011;3733;47.994;8.820;2022-12-10T00:06:16;44.83;;;23.70;;
7383;SDS011;3733;47.994;8.820;2022-12-10T00:08:44;49.50;;;24.40;;
7383;SDS011;3733;47.994;8.820;2022-12-10T00:11:10;49.13;;;24.37;;
7383;SDS011;3733;47.994;8.820;2022-12-10T00:13:37;54.17;;;23.57;;
7383;SDS011;3733;47.994;8.820;2022-12-10T00:16:04;44.40;;;24.80;;
7383;SDS011;3733;47.994;8.820;2022-12-10T00:18:33;45.80;;;23.40;;
7383;SDS011;3733;47.994;8.820;2022-12-10T00:21:02;53.17;;;24.30;;
7383;SDS011;3733;47.994;8.820;2022-12-10T00:23:29;47.47;;;24.60;;
7383;SDS011;3733;47.994;8.820;2022-12-10T00:26:01;51.40;;;26.93;;
7383;SDS011;3733;47.994;8.820;2022-12-10T00:28:34;51.27;;;25.87;;
7383;SDS011;3733;47.994;8.820;2022-12-10T00:31:04;47.67;;;24.00;;
7383;SDS011;3733;47.994;8.820;2022-12-10T00:33:35;46.83;;;24.07;;
7383;SDS011;3733;47.994;8.820;2022-12-10T00:36:01;45.17;;;24.17;;
7383;SDS011;3733;47.994;8.820;2022-12-10T00:38:39;50.67;;;24.17;;
7383;SDS011;3733;47.994;8.820;2022-12-10T00:41:05;46.83;;;23.50;;
7383;SDS011;3733;47.994;8.820;2022-12-10T00:43:30;47.70;;;22.93;;
7383;SDS011;3733;47.994;8.820;2022-12-10T00:45:56;48.03;;;24.73;;
7383;SDS011;3733;47.994;8.820;2022-12-10T00:48:22;43.97;;;22.53;;
7383;SDS011;3733;47.994;8.820;2022-12-10T00:53:46;49.10;;;23.60;;
7383;SDS011;3733;47.994;8.820;2022-12-10T00:56:14;41.87;;;23.20;;
7383;SDS011;3733;47.994;8.820;2022-12-10T00:58:41;51.67;;;23.67;;
7383;SDS011;3733;47.994;8.820;2022-12-10T01:03:51;44.43;;;22.10;;
7383;SDS011;3733;47.994;8.820;2022-12-10T01:08:51;52.47;;;23.10;;
7383;SDS011;3733;47.994;8.820;2022-12-10T01:11:19;44.80;;;22.30;;
7383;SDS011;3733;47.994;8.820;2022-12-10T01:13:46;44.97;;;23.10;;
7383;SDS011;3733;47.994;8.820;2022-12-10T01:16:13;47.83;;;22.83;;
7383;SDS011;3733;47.994;8.820;2022-12-10T01:18:41;49.80;;;23.90;;
7383;SDS011;3733;47.994;8.820;2022-12-10T01:21:08;53.33;;;24.23;;
7383;SDS011;3733;47.994;8.820;2022-12-10T01:23:36;43.73;;;22.83;;
7383;SDS011;3733;47.994;8.820;2022-12-10T01:26:05;44.10;;;22.70;;
7383;SDS011;3733;47.994;8.820;2022-12-10T01:28:33;51.87;;;24.20;;
7383;SDS011;3733;47.994;8.820;2022-12-10T01:31:07;44.10;;;22.73;;
7383;SDS011;3733;47.994;8.820;2022-12-10T01:33:37;40.83;;;22.17;;
7383;SDS011;3733;47.994;8.820;2022-12-10T01:36:05;51.77;;;23.97;;
7383;SDS011;3733;47.994;8.820;2022-12-10T01:38:34;45.40;;;23.23;;
7383;SDS011;3733;47.994;8.820;2022-12-10T01:41:00;49.50;;;21.13;;
7383;SDS011;3733;47.994;8.820;2022-12-10T01:43:26;43.73;;;21.57;;
7383;SDS011;3733;47.994;8.820;2022-12-10T01:45:51;44.87;;;22.67;;
7383;SDS011;3733;47.994;8.820;2022-12-10T01:48:17;43.07;;;22.33;;
7383;SDS011;3733;47.994;8.820;2022-12-10T01:50:43;41.23;;;19.23;;
7383;SDS011;3733;47.994;8.820;2022-12-10T01:53:09;40.30;;;21.37;;
7383;SDS011;3733;47.994;8.820;2022-12-10T01:58:13;42.07;;;20.83;;
7383;SDS011;3733;47.994;8.820;2022-12-10T02:00:43;39.50;;;20.23;;
7383;SDS011;3733;47.994;8.820;2022-12-10T02:03:37;36.90;;;19.33;;
7383;SDS011;3733;47.994;8.820;2022-12-10T02:14:26;44.50;;;20.80;;
7383;SDS011;3733;47.994;8.820;2022-12-10T02:17:03;42.57;;;21.80;;
7383;SDS011;3733;47.994;8.820;2022-12-10T02:22:17;49.67;;;21.03;;
7383;SDS011;3733;47.994;8.820;2022-12-10T02:24:46;36.83;;;18.50;;
7383;SDS011;3733;47.994;8.820;2022-12-10T02:27:15;36.50;;;18.93;;
7383;SDS011;3733;47.994;8.820;2022-12-10T02:29:52;33.87;;;19.60;;
7383;SDS011;3733;47.994;8.820;2022-12-10T02:32:24;37.33;;;19.80;;
7383;SDS011;3733;47.994;8.820;2022-12-10T02:34:55;40.80;;;18.73;;
7383;SDS011;3733;47.994;8.820;2022-12-10T02:37:29;38.17;;;19.00;;
7383;SDS011;3733;47.994;8.820;2022-12-10T02:39:57;37.80;;;19.53;;
7383;SDS011;3733;47.994;8.820;2022-12-10T02:42:26;34.20;;;17.50;;
7383;SDS011;3733;47.994;8.820;2022-12-10T02:44:55;39.30;;;18.60;;
7383;SDS011;3733;47.994;8.820;2022-12-10T02:47:22;37.87;;;17.90;;
7383;SDS011;3733;47.994;8.820;2022-12-10T02:49:50;40.97;;;19.93;;
7383;SDS011;3733;47.994;8.820;2022-12-10T02:52:18;36.47;;;18.87;;
7383;SDS011;3733;47.994;8.820;2022-12-10T02:54:46;38.27;;;18.77;;
7383;SDS011;3733;47.994;8.820;2022-12-10T03:05:07;38.10;;;18.07;;
7383;SDS011;3733;47.994;8.820;2022-12-10T03:07:51;36.50;;;18.47;;
7383;SDS011;3733;47.994;8.820;2022-12-10T03:10:34;39.83;;;20.67;;
7383;SDS011;3733;47.994;8.820;2022-12-10T03:13:06;35.17;;;19.40;;
7383;SDS011;3733;47.994;8.820;2022-12-10T03:15:35;36.17;;;17.40;;
7383;SDS011;3733;47.994;8.820;2022-12-10T03:18:04;37.40;;;17.83;;
7383;SDS011;3733;47.994;8.820;2022-12-10T03:20:32;32.73;;;16.07;;
7383;SDS011;3733;47.994;8.820;2022-12-10T03:23:01;36.20;;;18.27;;
7383;SDS011;3733;47.994;8.820;2022-12-10T03:25:32;36.00;;;17.80;;
7383;SDS011;3733;47.994;8.820;2022-12-10T03:27:58;35.37;;;17.37;;
7383;SDS011;3733;47.994;8.820;2022-12-10T03:30:25;36.23;;;18.07;;
7383;SDS011;3733;47.994;8.820;2022-12-10T03:32:52;40.90;;;18.60;;
7383;SDS011;3733;47.994;8.820;2022-12-10T03:35:19;34.30;;;18.13;;
7383;SDS011;3733;47.994;8.820;2022-12-10T03:37:47;38.73;;;18.13;;
7383;SDS011;3733;47.994;8.820;2022-12-10T03:40:14;35.27;;;18.33;;
7383;SDS011;3733;47.994;8.820;2022-12-10T03:42:43;32.23;;;17.53;;
7383;SDS011;3733;47.994;8.820;2022-12-10T03:45:08;39.90;;;19.93;;
7383;SDS011;3733;47.994;8.820;2022-12-10T03:47:34;41.63;;;20.13;;
7383;SDS011;3733;47.994;8.820;2022-12-10T03:50:00;40.70;;;21.40;;
7383;SDS011;3733;47.994;8.820;2022-12-10T03:52:26;38.77;;;19.30;;
7383;SDS011;3733;47.994;8.820;2022-12-10T03:54:51;37.90;;;20.00;;
7383;SDS011;3733;47.994;8.820;2022-12-10T03:57:17;37.63;;;18.80;;
7383;SDS011;3733;47.994;8.820;2022-12-10T03:59:43;35.30;;;19.80;;
7383;SDS011;3733;47.994;8.820;2022-12-10T04:02:08;40.50;;;20.53;;
7383;SDS011;3733;47.994;8.820;2022-12-10T04:04:35;35.83;;;18.47;;
7383;SDS011;3733;47.994;8.820;2022-12-10T04:07:02;38.10;;;18.93;;
7383;SDS011;3733;47.994;8.820;2022-12-10T04:09:28;42.20;;;20.90;;
7383;SDS011;3733;47.994;8.820;2022-12-10T04:11:57;35.30;;;17.23;;
7383;SDS011;3733;47.994;8.820;2022-12-10T04:14:23;39.30;;;19.63;;
7383;SDS011;3733;47.994;8.820;2022-12-10T04:17:08;42.90;;;18.97;;
7383;SDS011;3733;47.994;8.820;2022-12-10T04:19:34;43.13;;;20.60;;
7383;SDS011;3733;47.994;8.820;2022-12-10T04:22:00;38.20;;;19.50;;
7383;SDS011;3733;47.994;8.820;2022-12-10T04:24:44;39.77;;;18.50;;
7383;SDS011;3733;47.994;8.820;2022-12-10T04:27:32;45.43;;;20.30;;
7383;SDS011;3733;47.994;8.820;2022-12-10T04:30:00;40.67;;;20.67;;
7383;SDS011;3733;47.994;8.820;2022-12-10T04:32:27;39.17;;;18.67;;
7383;SDS011;3733;47.994;8.820;2022-12-10T04:34:54;40.17;;;19.97;;
7383;SDS011;3733;47.994;8.820;2022-12-10T04:37:20;40.10;;;19.80;;
7383;SDS011;3733;47.994;8.820;2022-12-10T04:39:47;43.57;;;20.20;;
7383;SDS011;3733;47.994;8.820;2022-12-10T04:42:14;39.40;;;18.60;;
7383;SDS011;3733;47.994;8.820;2022-12-10T04:44:39;41.13;;;18.27;;
7383;SDS011;3733;47.994;8.820;2022-12-10T04:47:06;39.57;;;19.80;;
7383;SDS011;3733;47.994;8.820;2022-12-10T04:49:33;36.50;;;17.97;;
7383;SDS011;3733;47.994;8.820;2022-12-10T04:51:59;38.80;;;19.20;;
7383;SDS011;3733;47.994;8.820;2022-12-10T04:54:25;40.07;;;19.40;;
7383;SDS011;3733;47.994;8.820;2022-12-10T04:56:51;45.73;;;19.33;;
7383;SDS011;3733;47.994;8.820;2022-12-10T04:59:16;38.53;;;19.90;;
7383;SDS011;3733;47.994;8.820;2022-12-10T05:01:42;45.33;;;19.70;;
7383;SDS011;3733;47.994;8.820;2022-12-10T05:04:10;41.43;;;19.60;;
7383;SDS011;3733;47.994;8.820;2022-12-10T05:06:38;37.60;;;18.57;;
7383;SDS011;3733;47.994;8.820;2022-12-10T05:09:04;40.77;;;20.03;;
7383;SDS011;3733;47.994;8.820;2022-12-10T05:11:30;40.33;;;18.33;;
7383;SDS011;3733;47.994;8.820;2022-12-10T05:13:57;40.43;;;19.20;;
7383;SDS011;3733;47.994;8.820;2022-12-10T05:16:24;42.53;;;19.57;;
7383;SDS011;3733;47.994;8.820;2022-12-10T05:18:52;37.07;;;18.63;;
7383;SDS011;3733;47.994;8.820;2022-12-10T05:21:20;37.83;;;19.17;;
7383;SDS011;3733;47.994;8.820;2022-12-10T05:23:47;38.70;;;19.30;;
7383;SDS011;3733;47.994;8.820;2022-12-10T05:26:24;36.77;;;18.43;;
7383;SDS011;3733;47.994;8.820;2022-12-10T05:28:54;38.70;;;19.57;;
7383;SDS011;3733;47.994;8.820;2022-12-10T05:31:30;42.30;;;21.13;;
7383;SDS011;3733;47.994;8.820;2022-12-10T05:33:56;41.50;;;19.47;;
7383;SDS011;3733;47.994;8.820;2022-12-10T05:36:23;38.50;;;18.43;;
7383;SDS011;3733;47.994;8.820;2022-12-10T05:38:51;40.10;;;19.20;;
7383;SDS011;3733;47.994;8.820;2022-12-10T05:41:19;38.47;;;19.53;;
7383;SDS011;3733;47.994;8.820;2022-12-10T05:43:47;38.63;;;18.57;;
7383;SDS011;3733;47.994;8.820;2022-12-10T05:46:14;41.23;;;20.20;;
7383;SDS011;3733;47.994;8.820;2022-12-10T05:48:41;43.57;;;19.50;;
7383;SDS011;3733;47.994;8.820;2022-12-10T05:51:08;39.60;;;17.80;;
7383;SDS011;3733;47.994;8.820;2022-12-10T05:53:36;42.20;;;18.87;;
7383;SDS011;3733;47.994;8.820;2022-12-10T05:56:04;37.83;;;19.50;;
7383;SDS011;3733;47.994;8.820;2022-12-10T05:58:32;42.50;;;21.10;;
7383;SDS011;3733;47.994;8.820;2022-12-10T06:00:58;46.40;;;21.13;;
7383;SDS011;3733;47.994;8.820;2022-12-10T06:03:26;46.77;;;22.00;;
7383;SDS011;3733;47.994;8.820;2022-12-10T06:05:52;46.40;;;19.80;;
7383;SDS011;3733;47.994;8.820;2022-12-10T06:08:17;41.10;;;19.33;;
7383;SDS011;3733;47.994;8.820;2022-12-10T06:10:43;38.37;;;20.07;;
7383;SDS011;3733;47.994;8.820;2022-12-10T06:13:09;41.23;;;20.23;;
7383;SDS011;3733;47.994;8.820;2022-12-10T06:15:37;39.43;;;20.17;;
7383;SDS011;3733;47.994;8.820;2022-12-10T06:18:04;43.13;;;22.13;;
7383;SDS011;3733;47.994;8.820;2022-12-10T06:20:30;40.33;;;20.20;;
7383;SDS011;3733;47.994;8.820;2022-12-10T06:22:56;37.17;;;18.03;;
7383;SDS011;3733;47.994;8.820;2022-12-10T06:25:21;38.17;;;19.23;;
7383;SDS011;3733;47.994;8.820;2022-12-10T06:27:47;39.60;;;18.33;;
7383;SDS011;3733;47.994;8.820;2022-12-10T06:30:12;40.53;;;18.23;;
7383;SDS011;3733;47.994;8.820;2022-12-10T06:32:38;51.73;;;23.33;;
7383;SDS011;3733;47.994;8.820;2022-12-10T06:35:04;40.13;;;19.53;;
7383;SDS011;3733;47.994;8.820;2022-12-10T06:37:30;43.67;;;19.37;;
7383;SDS011;3733;47.994;8.820;2022-12-10T06:39:56;52.10;;;19.83;;
7383;SDS011;3733;47.994;8.820;2022-12-10T06:42:21;40.53;;;17.97;;
7383;SDS011;3733;47.994;8.820;2022-12-10T06:44:47;38.73;;;18.37;;
7383;SDS011;3733;47.994;8.820;2022-12-10T06:47:13;44.90;;;21.20;;
7383;SDS011;3733;47.994;8.820;2022-12-10T06:49:39;41.50;;;18.77;;
7383;SDS011;3733;47.994;8.820;2022-12-10T06:52:05;44.97;;;19.00;;
7383;SDS011;3733;47.994;8.820;2022-12-10T06:54:31;41.83;;;19.77;;
7383;SDS011;3733;47.994;8.820;2022-12-10T06:56:57;42.77;;;20.27;;
7383;SDS011;3733;47.994;8.820;2022-12-10T06:59:23;38.17;;;17.83;;
7383;SDS011;3733;47.994;8.820;2022-12-10T07:01:49;35.90;;;18.00;;
7383;SDS011;3733;47.994;8.820;2022-12-10T07:04:14;33.17;;;16.90;;
7383;SDS011;3733;47.994;8.820;2022-12-10T07:06:40;40.10;;;18.13;;
7383;SDS011;3733;47.994;8.820;2022-12-10T07:09:06;44.80;;;18.63;;
7383;SDS011;3733;47.994;8.820;2022-12-10T07:11:32;35.80;;;17.60;;
7383;SDS011;3733;47.994;8.820;2022-12-10T07:13:58;36.17;;;18.53;;
7383;SDS011;3733;47.994;8.820;2022-12-10T07:16:25;37.50;;;17.60;;
7383;SDS011;3733;47.994;8.820;2022-12-10T07:18:53;42.03;;;19.33;;
7383;SDS011;3733;47.994;8.820;2022-12-10T07:21:21;36.20;;;17.50;;
7383;SDS011;3733;47.994;8.820;2022-12-10T07:23:49;33.40;;;17.03;;
7383;SDS011;3733;47.994;8.820;2022-12-10T07:26:15;37.43;;;17.60;;
7383;SDS011;3733;47.994;8.820;2022-12-10T07:28:41;37.40;;;18.57;;
7383;SDS011;3733;47.994;8.820;2022-12-10T07:31:07;40.90;;;18.60;;
7383;SDS011;3733;47.994;8.820;2022-12-10T07:33:34;41.13;;;18.90;;
7383;SDS011;3733;47.994;8.820;2022-12-10T07:36:07;35.20;;;17.23;;
7383;SDS011;3733;47.994;8.820;2022-12-10T07:38:35;39.50;;;21.33;;
7383;SDS011;3733;47.994;8.820;2022-12-10T07:41:02;50.33;;;20.00;;
7383;SDS011;3733;47.994;8.820;2022-12-10T07:43:33;44.90;;;20.17;;
7383;SDS011;3733;47.994;8.820;2022-12-10T07:46:11;61.60;;;27.60;;
7383;SDS011;3733;47.994;8.820;2022-12-10T07:48:40;63.80;;;29.60;;
7383;SDS011;3733;47.994;8.820;2022-12-10T07:51:07;50.07;;;24.83;;
7383;SDS011;3733;47.994;8.820;2022-12-10T07:53:33;45.63;;;22.07;;
7383;SDS011;3733;47.994;8.820;2022-12-10T07:55:59;45.83;;;21.93;;
7383;SDS011;3733;47.994;8.820;2022-12-10T07:58:26;39.77;;;19.97;;
7383;SDS011;3733;47.994;8.820;2022-12-10T08:00:51;42.20;;;19.87;;
7383;SDS011;3733;47.994;8.820;2022-12-10T08:03:17;39.43;;;19.27;;
7383;SDS011;3733;47.994;8.820;2022-12-10T08:05:43;40.30;;;18.70;;
7383;SDS011;3733;47.994;8.820;2022-12-10T08:08:08;39.70;;;20.67;;
7383;SDS011;3733;47.994;8.820;2022-12-10T08:10:37;38.40;;;18.60;;
7383;SDS011;3733;47.994;8.820;2022-12-10T08:13:04;41.10;;;20.13;;
7383;SDS011;3733;47.994;8.820;2022-12-10T08:15:30;38.63;;;18.23;;
7383;SDS011;3733;47.994;8.820;2022-12-10T08:17:57;39.37;;;20.03;;
7383;SDS011;3733;47.994;8.820;2022-12-10T08:20:24;37.43;;;19.23;;
7383;SDS011;3733;47.994;8.820;2022-12-10T08:22:50;39.10;;;18.87;;
7383;SDS011;3733;47.994;8.820;2022-12-10T08:25:16;35.00;;;18.17;;
7383;SDS011;3733;47.994;8.820;2022-12-10T08:27:42;37.43;;;18.20;;
7383;SDS011;3733;47.994;8.820;2022-12-10T08:30:08;43.60;;;17.80;;
7383;SDS011;3733;47.994;8.820;2022-12-10T08:32:34;36.87;;;17.00;;
7383;SDS011;3733;47.994;8.820;2022-12-10T08:34:59;36.13;;;17.47;;
7383;SDS011;3733;47.994;8.820;2022-12-10T08:37:25;38.37;;;18.07;;
7383;SDS011;3733;47.994;8.820;2022-12-10T08:39:51;44.83;;;19.50;;
7383;SDS011;3733;47.994;8.820;2022-12-10T08:42:17;36.17;;;18.17;;
7383;SDS011;3733;47.994;8.820;2022-12-10T08:44:42;41.00;;;18.67;;
7383;SDS011;3733;47.994;8.820;2022-12-10T08:47:08;35.50;;;17.50;;
7383;SDS011;3733;47.994;8.820;2022-12-10T08:49:33;35.07;;;16.87;;
7383;SDS011;3733;47.994;8.820;2022-12-10T08:51:59;29.50;;;14.50;;
7383;SDS011;3733;47.994;8.820;2022-12-10T08:54:25;30.07;;;15.17;;
7383;SDS011;3733;47.994;8.820;2022-12-10T08:56:50;29.43;;;14.43;;
7383;SDS011;3733;47.994;8.820;2022-12-10T08:59:16;26.27;;;14.07;;
7383;SDS011;3733;47.994;8.820;2022-12-10T09:01:42;28.70;;;14.07;;
7383;SDS011;3733;47.994;8.820;2022-12-10T09:04:07;27.00;;;13.40;;
7383;SDS011;3733;47.994;8.820;2022-12-10T09:06:33;28.27;;;14.13;;
7383;SDS011;3733;47.994;8.820;2022-12-10T09:08:59;28.60;;;13.73;;
7383;SDS011;3733;47.994;8.820;2022-12-10T09:11:29;24.63;;;12.30;;
7383;SDS011;3733;47.994;8.820;2022-12-10T09:13:56;30.77;;;12.67;;
7383;SDS011;3733;47.994;8.820;2022-12-10T09:16:27;25.40;;;12.27;;
7383;SDS011;3733;47.994;8.820;2022-12-10T09:18:54;22.13;;;11.40;;
7383;SDS011;3733;47.994;8.820;2022-12-10T09:21:20;22.27;;;11.83;;
7383;SDS011;3733;47.994;8.820;2022-12-10T09:23:46;22.67;;;11.70;;
7383;SDS011;3733;47.994;8.820;2022-12-10T09:26:12;23.90;;;12.70;;
7383;SDS011;3733;47.994;8.820;2022-12-10T09:28:39;20.23;;;11.00;;
7383;SDS011;3733;47.994;8.820;2022-12-10T09:31:06;22.60;;;11.33;;
7383;SDS011;3733;47.994;8.820;2022-12-10T09:33:33;22.13;;;11.77;;
7383;SDS011;3733;47.994;8.820;2022-12-10T09:35:59;23.67;;;11.87;;
7383;SDS011;3733;47.994;8.820;2022-12-10T09:38:28;23.27;;;12.57;;
7383;SDS011;3733;47.994;8.820;2022-12-10T09:41:01;22.10;;;11.23;;
7383;SDS011;3733;47.994;8.820;2022-12-10T09:43:47;25.03;;;13.57;;
7383;SDS011;3733;47.994;8.820;2022-12-10T09:51:19;20.10;;;10.90;;
7383;SDS011;3733;47.994;8.820;2022-12-10T09:53:48;18.93;;;9.80;;
7383;SDS011;3733;47.994;8.820;2022-12-10T09:56:23;17.50;;;10.17;;
7383;SDS011;3733;47.994;8.820;2022-12-10T09:59:00;19.47;;;10.40;;
7383;SDS011;3733;47.994;8.820;2022-12-10T10:01:31;19.57;;;10.50;;
7383;SDS011;3733;47.994;8.820;2022-12-10T10:03:59;18.60;;;10.23;;
7383;SDS011;3733;47.994;8.820;2022-12-10T10:06:25;19.23;;;10.23;;
7383;SDS011;3733;47.994;8.820;2022-12-10T10:08:53;19.70;;;11.20;;
7383;SDS011;3733;47.994;8.820;2022-12-10T10:11:22;23.63;;;11.90;;
7383;SDS011;3733;47.994;8.820;2022-12-10T10:13:53;20.00;;;12.27;;
7383;SDS011;3733;47.994;8.820;2022-12-10T10:16:36;18.73;;;10.57;;
7383;SDS011;3733;47.994;8.820;2022-12-10T10:19:43;20.67;;;10.63;;
7383;SDS011;3733;47.994;8.820;2022-12-10T10:22:04;25.30;;;13.17;;
7383;SDS011;3733;47.994;8.820;2022-12-10T10:24:34;20.53;;;11.03;;
7383;SDS011;3733;47.994;8.820;2022-12-10T10:29:36;21.80;;;11.87;;
7383;SDS011;3733;47.994;8.820;2022-12-10T10:32:12;18.87;;;10.30;;
7383;SDS011;3733;47.994;8.820;2022-12-10T10:34:41;27.53;;;11.70;;
7383;SDS011;3733;47.994;8.820;2022-12-10T10:37:11;20.77;;;10.60;;
7383;SDS011;3733;47.994;8.820;2022-12-10T10:39:55;18.13;;;9.27;;
7383;SDS011;3733;47.994;8.820;2022-12-10T10:42:25;20.60;;;10.30;;
7383;SDS011;3733;47.994;8.820;2022-12-10T10:45:04;19.97;;;11.00;;
7383;SDS011;3733;47.994;8.820;2022-12-10T10:47:50;17.10;;;9.60;;
7383;SDS011;3733;47.994;8.820;2022-12-10T10:50:53;17.00;;;10.07;;
7383;SDS011;3733;47.994;8.820;2022-12-10T10:56:20;17.80;;;9.53;;
7383;SDS011;3733;47.994;8.820;2022-12-10T11:01:17;15.87;;;8.77;;
7383;SDS011;3733;47.994;8.820;2022-12-10T11:03:48;16.43;;;9.50;;
7383;SDS011;3733;47.994;8.820;2022-12-10T11:06:18;16.40;;;9.30;;
7383;SDS011;3733;47.994;8.820;2022-12-10T11:08:44;14.30;;;8.67;;
7383;SDS011;3733;47.994;8.820;2022-12-10T11:11:12;15.30;;;8.00;;
7383;SDS011;3733;47.994;8.820;2022-12-10T11:13:47;16.83;;;9.43;;
7383;SDS011;3733;47.994;8.820;2022-12-10T11:16:21;15.90;;;9.70;;
7383;SDS011;3733;47.994;8.820;2022-12-10T11:18:53;20.33;;;9.67;;
7383;SDS011;3733;47.994;8.820;2022-12-10T11:21:22;14.27;;;9.73;;
7383;SDS011;3733;47.994;8.820;2022-12-10T11:23:53;16.70;;;9.23;;
7383;SDS011;3733;47.994;8.820;2022-12-10T11:37:42;20.97;;;10.13;;
7383;SDS011;3733;47.994;8.820;2022-12-10T11:46:12;24.90;;;11.27;;
7383;SDS011;3733;47.994;8.820;2022-12-10T12:03:03;23.07;;;11.07;;
7383;SDS011;3733;47.994;8.820;2022-12-10T12:05:44;27.37;;;12.37;;
7383;SDS011;3733;47.994;8.820;2022-12-10T12:08:30;23.80;;;11.47;;
7383;SDS011;3733;47.994;8.820;2022-12-10T12:13:51;17.67;;;9.40;;
7383;SDS011;3733;47.994;8.820;2022-12-10T12:16:37;18.63;;;10.67;;
7383;SDS011;3733;47.994;8.820;2022-12-10T12:19:11;19.30;;;10.43;;
7383;SDS011;3733;47.994;8.820;2022-12-10T12:21:41;25.70;;;9.90;;
7383;SDS011;3733;47.994;8.820;2022-12-10T12:26:45;18.30;;;9.70;;
7383;SDS011;3733;47.994;8.820;2022-12-10T12:29:27;16.77;;;8.60;;
7383;SDS011;3733;47.994;8.820;2022-12-10T12:32:05;13.50;;;8.40;;
7383;SDS011;3733;47.994;8.820;2022-12-10T12:34:47;17.60;;;9.47;;
7383;SDS011;3733;47.994;8.820;2022-12-10T12:37:18;19.07;;;9.53;;
7383;SDS011;3733;47.994;8.820;2022-12-10T12:40:02;16.20;;;7.50;;
7383;SDS011;3733;47.994;8.820;2022-12-10T12:45:24;17.20;;;10.53;;
7383;SDS011;3733;47.994;8.820;2022-12-10T12:54:11;18.77;;;10.23;;
7383;SDS011;3733;47.994;8.820;2022-12-10T13:02:46;15.93;;;10.17;;
7383;SDS011;3733;47.994;8.820;2022-12-10T13:05:12;17.90;;;9.30;;
7383;SDS011;3733;47.994;8.820;2022-12-10T13:08:20;22.40;;;10.50;;
7383;SDS011;3733;47.994;8.820;2022-12-10T13:10:57;16.30;;;9.70;;
7383;SDS011;3733;47.994;8.820;2022-12-10T13:14:02;15.90;;;9.50;;
7383;SDS011;3733;47.994;8.820;2022-12-10T13:19:27;23.77;;;12.27;;
7383;SDS011;3733;47.994;8.820;2022-12-10T13:22:03;20.83;;;10.20;;
7383;SDS011;3733;47.994;8.820;2022-12-10T13:32:52;20.37;;;10.80;;
7383;SDS011;3733;47.994;8.820;2022-12-10T13:42:42;24.73;;;12.17;;
7383;SDS011;3733;47.994;8.820;2022-12-10T13:45:30;18.80;;;10.53;;
7383;SDS011;3733;47.994;8.820;2022-12-10T13:50:45;20.50;;;11.03;;
7383;SDS011;3733;47.994;8.820;2022-12-10T14:06:58;21.37;;;12.03;;
7383;SDS011;3733;47.994;8.820;2022-12-10T14:09:26;22.57;;;11.93;;
7383;SDS011;3733;47.994;8.820;2022-12-10T14:14:28;21.97;;;12.27;;
7383;SDS011;3733;47.994;8.820;2022-12-10T14:16:59;23.83;;;13.37;;
7383;SDS011;3733;47.994;8.820;2022-12-10T14:19:46;28.23;;;13.60;;
7383;SDS011;3733;47.994;8.820;2022-12-10T14:22:18;22.60;;;12.20;;
7383;SDS011;3733;47.994;8.820;2022-12-10T14:24:49;27.13;;;13.17;;
7383;SDS011;3733;47.994;8.820;2022-12-10T14:29:47;26.47;;;14.10;;
7383;SDS011;3733;47.994;8.820;2022-12-10T14:32:18;29.77;;;14.70;;
7383;SDS011;3733;47.994;8.820;2022-12-10T14:34:55;28.90;;;15.87;;
7383;SDS011;3733;47.994;8.820;2022-12-10T14:37:24;31.03;;;15.60;;
7383;SDS011;3733;47.994;8.820;2022-12-10T14:39:52;23.30;;;13.80;;
7383;SDS011;3733;47.994;8.820;2022-12-10T14:42:18;30.50;;;15.30;;
7383;SDS011;3733;47.994;8.820;2022-12-10T14:44:45;23.00;;;13.73;;
7383;SDS011;3733;47.994;8.820;2022-12-10T14:47:16;28.77;;;14.90;;
7383;SDS011;3733;47.994;8.820;2022-12-10T14:49:45;26.37;;;13.97;;
7383;SDS011;3733;47.994;8.820;2022-12-10T14:52:19;27.27;;;14.67;;
7383;SDS011;3733;47.994;8.820;2022-12-10T14:54:48;27.67;;;14.10;;
7383;SDS011;3733;47.994;8.820;2022-12-10T14:57:27;28.53;;;14.13;;
7383;SDS011;3733;47.994;8.820;2022-12-10T15:00:07;28.10;;;14.83;;
7383;SDS011;3733;47.994;8.820;2022-12-10T15:02:42;24.53;;;12.53;;
7383;SDS011;3733;47.994;8.820;2022-12-10T15:05:16;26.37;;;14.33;;
7383;SDS011;3733;47.994;8.820;2022-12-10T15:07:48;27.63;;;13.63;;
7383;SDS011;3733;47.994;8.820;2022-12-10T15:10:20;25.40;;;13.27;;
7383;SDS011;3733;47.994;8.820;2022-12-10T15:12:53;24.67;;;13.63;;
7383;SDS011;3733;47.994;8.820;2022-12-10T15:15:22;23.70;;;13.80;;
7383;SDS011;3733;47.994;8.820;2022-12-10T15:17:58;31.40;;;14.20;;
7383;SDS011;3733;47.994;8.820;2022-12-10T15:20:31;24.37;;;13.10;;
7383;SDS011;3733;47.994;8.820;2022-12-10T15:23:14;24.37;;;13.40;;
7383;SDS011;3733;47.994;8.820;2022-12-10T15:25:57;28.37;;;14.30;;
7383;SDS011;3733;47.994;8.820;2022-12-10T15:28:39;24.33;;;13.20;;
7383;SDS011;3733;47.994;8.820;2022-12-10T15:33:54;33.33;;;14.50;;
7383;SDS011;3733;47.994;8.820;2022-12-10T15:39:24;23.20;;;13.00;;
7383;SDS011;3733;47.994;8.820;2022-12-10T15:41:59;29.17;;;14.00;;
7383;SDS011;3733;47.994;8.820;2022-12-10T15:49:40;31.03;;;14.70;;
7383;SDS011;3733;47.994;8.820;2022-12-10T15:52:06;25.30;;;13.30;;
7383;SDS011;3733;47.994;8.820;2022-12-10T15:54:40;26.23;;;14.47;;
7383;SDS011;3733;47.994;8.820;2022-12-10T15:57:13;24.23;;;13.10;;
7383;SDS011;3733;47.994;8.820;2022-12-10T15:59:39;22.70;;;12.10;;
7383;SDS011;3733;47.994;8.820;2022-12-10T16:04:56;29.33;;;14.10;;
7383;SDS011;3733;47.994;8.820;2022-12-10T16:07:21;25.87;;;14.23;;
7383;SDS011;3733;47.994;8.820;2022-12-10T16:09:47;24.90;;;13.70;;
7383;SDS011;3733;47.994;8.820;2022-12-10T16:12:13;25.63;;;13.43;;
7383;SDS011;3733;47.994;8.820;2022-12-10T16:14:40;26.43;;;13.60;;
7383;SDS011;3733;47.994;8.820;2022-12-10T16:17:21;22.23;;;12.70;;
7383;SDS011;3733;47.994;8.820;2022-12-10T16:19:47;24.80;;;12.70;;
7383;SDS011;3733;47.994;8.820;2022-12-10T16:22:13;25.30;;;13.30;;
7383;SDS011;3733;47.994;8.820;2022-12-10T16:24:38;22.43;;;12.63;;
7383;SDS011;3733;47.994;8.820;2022-12-10T16:27:13;25.43;;;13.77;;
7383;SDS011;3733;47.994;8.820;2022-12-10T16:29:39;25.23;;;12.87;;
7383;SDS011;3733;47.994;8.820;2022-12-10T16:32:08;21.77;;;12.13;;
7383;SDS011;3733;47.994;8.820;2022-12-10T16:34:34;25.50;;;13.57;;
7383;SDS011;3733;47.994;8.820;2022-12-10T16:37:00;23.03;;;13.70;;
7383;SDS011;3733;47.994;8.820;2022-12-10T16:39:26;24.37;;;13.13;;
7383;SDS011;3733;47.994;8.820;2022-12-10T16:41:52;24.03;;;13.23;;
7383;SDS011;3733;47.994;8.820;2022-12-10T16:44:18;29.50;;;15.20;;
7383;SDS011;3733;47.994;8.820;2022-12-10T16:46:44;29.07;;;14.50;;
7383;SDS011;3733;47.994;8.820;2022-12-10T16:49:09;27.53;;;14.90;;
7383;SDS011;3733;47.994;8.820;2022-12-10T16:51:35;22.00;;;12.87;;
7383;SDS011;3733;47.994;8.820;2022-12-10T16:54:01;22.20;;;12.30;;
7383;SDS011;3733;47.994;8.820;2022-12-10T16:56:28;24.60;;;12.33;;
7383;SDS011;3733;47.994;8.820;2022-12-10T16:58:54;26.20;;;12.83;;
7383;SDS011;3733;47.994;8.820;2022-12-10T17:01:24;23.03;;;11.93;;
7383;SDS011;3733;47.994;8.820;2022-12-10T17:04:02;28.10;;;15.13;;
7383;SDS011;3733;47.994;8.820;2022-12-10T17:06:28;24.97;;;12.30;;
7383;SDS011;3733;47.994;8.820;2022-12-10T17:08:54;22.57;;;11.70;;
7383;SDS011;3733;47.994;8.820;2022-12-10T17:11:20;20.37;;;10.57;;
7383;SDS011;3733;47.994;8.820;2022-12-10T17:14:09;18.80;;;9.97;;
7383;SDS011;3733;47.994;8.820;2022-12-10T17:16:46;19.63;;;10.73;;
7383;SDS011;3733;47.994;8.820;2022-12-10T17:19:13;19.70;;;11.13;;
7383;SDS011;3733;47.994;8.820;2022-12-10T17:21:38;20.40;;;11.10;;
7383;SDS011;3733;47.994;8.820;2022-12-10T17:24:04;20.87;;;10.70;;
7383;SDS011;3733;47.994;8.820;2022-12-10T17:26:31;20.17;;;11.00;;
7383;SDS011;3733;47.994;8.820;2022-12-10T17:29:45;17.77;;;10.73;;
7383;SDS011;3733;47.994;8.820;2022-12-10T17:31:53;17.83;;;10.40;;